sensor_id;sensor_type;location;lat;lon;timestamp;pressure;altitude;pressure_sealevel;temperature;humidity
72226;BME280;60130;52.250;5.048;2023-08-21T00:00:00;1023.5;;;17.4;82.7
72226;BME280;60130;52.250;5.048;2023-08-21T00:05:00;1023.6;;;17.5;83.3
72226;BME280;60130;52.250;5.048;2023-08-21T00:10:00;1023.7;;;17.4;82.6
72226;BME280;60130;52.250;5.048;2023-08-21T00:15:00;1023.7;;;17.4;81.8
72226;BME280;60130;52.250;5.048;2023-08-21T00:20:00;1023.7;;;17.3;82.8
72226;BME280;60130;52.250;5.048;2023-08-21T00:25:00;1023.6;;;17.2;83.6
72226;BME280;60130;52.250;5.048;2023-08-21T00:30:00;1023.5;;;17.2;83.2
72226;BME280;60130;52.250;5.048;2023-08-21T00:35:00;1023.5;;;17.1;83.9
72226;BME280;60130;52.250;5.048;2023-08-21T00:40:00;1023.5;;;17.2;83.1
72226;BME280;60130;52.250;5.048;2023-08-21T00:45:00;1023.5;;;17.1;82.9
72226;BME280;60130;52.250;5.048;2023-08-21T00:50:00;1023.5;;;17.1;83.3
72226;BME280;60130;52.250;5.048;2023-08-21T00:55:00;1023.5;;;17.1;83.0
72226;BME280;60130;52.250;5.048;2023-08-21T01:00:00;1023.5;;;17.1;82.5
72226;BME280;60130;52.250;5.048;2023-08-21T01:05:00;1023.5;;;17.2;82.7
72226;BME280;60130;52.250;5.048;2023-08-21T01:10:03;1023.5;;;17.2;83.1
72226;BME280;60130;52.250;5.048;2023-08-21T01:15:02;1023.5;;;17.1;83.3
72226;BME280;60130;52.250;5.048;2023-08-21T01:20:00;1023.6;;;16.9;84.4
72226;BME280;60130;52.250;5.048;2023-08-21T01:25:00;1023.6;;;16.8;85.0
72226;BME280;60130;52.250;5.048;2023-08-21T01:30:00;1023.7;;;16.9;84.1
72226;BME280;60130;52.250;5.048;2023-08-21T01:35:00;1023.7;;;17.0;83.5
72226;BME280;60130;52.250;5.048;2023-08-21T01:40:00;1023.7;;;17.0;83.1
72226;BME280;60130;52.250;5.048;2023-08-21T01:45:00;1023.7;;;16.9;82.7
72226;BME280;60130;52.250;5.048;2023-08-21T01:50:01;1023.7;;;16.9;82.9
72226;BME280;60130;52.250;5.048;2023-08-21T01:55:00;1023.7;;;16.9;83.4
72226;BME280;60130;52.250;5.048;2023-08-21T02:00:00;1023.7;;;16.9;83.3
72226;BME280;60130;52.250;5.048;2023-08-21T02:05:00;1023.7;;;16.8;83.5
72226;BME280;60130;52.250;5.048;2023-08-21T02:10:00;1023.7;;;16.8;83.6
72226;BME280;60130;52.250;5.048;2023-08-21T02:15:00;1023.6;;;16.8;83.4
72226;BME280;60130;52.250;5.048;2023-08-21T02:20:00;1023.7;;;16.8;83.4
72226;BME280;60130;52.250;5.048;2023-08-21T02:25:00;1023.8;;;16.6;85.0
72226;BME280;60130;52.250;5.048;2023-08-21T02:30:00;1023.7;;;16.6;84.9
72226;BME280;60130;52.250;5.048;2023-08-21T02:35:00;1023.7;;;16.5;84.2
72226;BME280;60130;52.250;5.048;2023-08-21T02:40:00;1023.7;;;16.5;83.5
72226;BME280;60130;52.250;5.048;2023-08-21T02:45:00;1023.7;;;16.5;83.5
72226;BME280;60130;52.250;5.048;2023-08-21T02:50:00;1023.7;;;16.5;83.3
72226;BME280;60130;52.250;5.048;2023-08-21T02:55:01;1023.7;;;16.4;83.8
72226;BME280;60130;52.250;5.048;2023-08-21T03:00:00;1023.7;;;16.3;85.3
72226;BME280;60130;52.250;5.048;2023-08-21T03:05:00;1023.7;;;16.2;85.3
72226;BME280;60130;52.250;5.048;2023-08-21T03:10:00;1023.7;;;16.2;84.4
72226;BME280;60130;52.250;5.048;2023-08-21T03:15:00;1023.6;;;16.2;84.1
72226;BME280;60130;52.250;5.048;2023-08-21T03:20:00;1023.6;;;16.1;84.3
72226;BME280;60130;52.250;5.048;2023-08-21T03:25:00;1023.6;;;16.1;85.6
72226;BME280;60130;52.250;5.048;2023-08-21T03:30:00;1023.5;;;15.9;86.0
72226;BME280;60130;52.250;5.048;2023-08-21T03:35:00;1023.5;;;16.0;85.4
72226;BME280;60130;52.250;5.048;2023-08-21T03:40:02;1023.5;;;16.1;85.7
72226;BME280;60130;52.250;5.048;2023-08-21T03:45:00;1023.6;;;16.1;85.4
72226;BME280;60130;52.250;5.048;2023-08-21T03:50:00;1023.6;;;16.0;86.0
72226;BME280;60130;52.250;5.048;2023-08-21T03:55:00;1023.7;;;15.8;86.0
72226;BME280;60130;52.250;5.048;2023-08-21T04:00:00;1023.5;;;15.9;85.6
72226;BME280;60130;52.250;5.048;2023-08-21T04:05:00;1023.6;;;15.8;85.1
72226;BME280;60130;52.250;5.048;2023-08-21T04:10:00;1023.7;;;15.8;85.2
72226;BME280;60130;52.250;5.048;2023-08-21T04:15:00;1023.6;;;15.8;85.3
72226;BME280;60130;52.250;5.048;2023-08-21T04:20:00;1023.5;;;15.9;85.3
72226;BME280;60130;52.250;5.048;2023-08-21T04:25:00;1023.6;;;15.9;85.4
72226;BME280;60130;52.250;5.048;2023-08-21T04:30:00;1023.6;;;15.8;85.5
72226;BME280;60130;52.250;5.048;2023-08-21T04:35:00;1023.7;;;15.8;85.7
72226;BME280;60130;52.250;5.048;2023-08-21T04:40:00;1023.7;;;15.9;85.1
72226;BME280;60130;52.250;5.048;2023-08-21T04:45:00;1023.7;;;15.8;85.5
72226;BME280;60130;52.250;5.048;2023-08-21T04:50:00;1023.7;;;15.9;85.5
72226;BME280;60130;52.250;5.048;2023-08-21T04:55:00;1023.7;;;16.0;85.2
72226;BME280;60130;52.250;5.048;2023-08-21T05:00:00;1023.8;;;16.0;85.9
72226;BME280;60130;52.250;5.048;2023-08-21T05:05:00;1023.8;;;16.1;86.3
72226;BME280;60130;52.250;5.048;2023-08-21T05:10:00;1023.8;;;16.2;86.1
72226;BME280;60130;52.250;5.048;2023-08-21T05:15:00;1023.9;;;16.2;86.0
72226;BME280;60130;52.250;5.048;2023-08-21T05:20:00;1023.9;;;16.4;85.6
72226;BME280;60130;52.250;5.048;2023-08-21T05:25:00;1023.8;;;16.6;85.2
72226;BME280;60130;52.250;5.048;2023-08-21T05:30:00;1023.9;;;16.7;84.9
72226;BME280;60130;52.250;5.048;2023-08-21T05:35:00;1023.9;;;16.9;84.9
72226;BME280;60130;52.250;5.048;2023-08-21T05:40:00;1023.9;;;17.2;85.2
72226;BME280;60130;52.250;5.048;2023-08-21T05:45:00;1023.9;;;17.5;85.3
72226;BME280;60130;52.250;5.048;2023-08-21T05:50:00;1024.0;;;17.7;85.1
72226;BME280;60130;52.250;5.048;2023-08-21T05:55:00;1024.0;;;17.9;85.2
72226;BME280;60130;52.250;5.048;2023-08-21T06:00:00;1024.0;;;18.2;85.1
72226;BME280;60130;52.250;5.048;2023-08-21T06:05:00;1024.0;;;18.5;84.8
72226;BME280;60130;52.250;5.048;2023-08-21T06:10:00;1024.1;;;18.9;84.3
72226;BME280;60130;52.250;5.048;2023-08-21T06:15:00;1024.1;;;19.2;83.5
72226;BME280;60130;52.250;5.048;2023-08-21T06:20:00;1024.0;;;19.2;83.0
72226;BME280;60130;52.250;5.048;2023-08-21T06:25:00;1024.1;;;19.2;82.9
72226;BME280;60130;52.250;5.048;2023-08-21T06:30:00;1024.2;;;20.6;80.5
72226;BME280;60130;52.250;5.048;2023-08-21T06:35:00;1024.2;;;22.4;74.9
72226;BME280;60130;52.250;5.048;2023-08-21T06:40:00;1024.2;;;23.3;71.5
72226;BME280;60130;52.250;5.048;2023-08-21T06:45:00;1024.2;;;24.6;67.5
72226;BME280;60130;52.250;5.048;2023-08-21T06:50:00;1024.2;;;25.2;67.3
72226;BME280;60130;52.250;5.048;2023-08-21T06:55:00;1024.2;;;25.3;63.4
72226;BME280;60130;52.250;5.048;2023-08-21T07:00:00;1024.2;;;25.7;62.7
72226;BME280;60130;52.250;5.048;2023-08-21T07:05:00;1024.1;;;25.5;59.7
72226;BME280;60130;52.250;5.048;2023-08-21T07:10:00;1024.1;;;24.8;61.9
72226;BME280;60130;52.250;5.048;2023-08-21T07:15:00;1024.2;;;24.9;61.8
72226;BME280;60130;52.250;5.048;2023-08-21T07:20:00;1024.2;;;25.0;60.9
72226;BME280;60130;52.250;5.048;2023-08-21T07:25:00;1024.2;;;26.1;58.7
72226;BME280;60130;52.250;5.048;2023-08-21T07:30:00;1024.3;;;27.4;56.6
72226;BME280;60130;52.250;5.048;2023-08-21T07:35:00;1024.3;;;27.2;54.8
72226;BME280;60130;52.250;5.048;2023-08-21T07:40:00;1024.3;;;27.6;54.8
72226;BME280;60130;52.250;5.048;2023-08-21T07:45:00;1024.3;;;27.2;55.0
72226;BME280;60130;52.250;5.048;2023-08-21T07:50:00;1024.2;;;26.3;57.1
72226;BME280;60130;52.250;5.048;2023-08-21T07:55:00;1024.3;;;25.3;60.3
72226;BME280;60130;52.250;5.048;2023-08-21T08:00:00;1024.2;;;25.0;61.3
72226;BME280;60130;52.250;5.048;2023-08-21T08:05:00;1024.3;;;24.1;63.3
72226;BME280;60130;52.250;5.048;2023-08-21T08:10:00;1024.3;;;23.6;66.8
72226;BME280;60130;52.250;5.048;2023-08-21T08:15:00;1024.3;;;23.4;65.1
72226;BME280;60130;52.250;5.048;2023-08-21T08:20:00;1024.3;;;23.5;65.7
72226;BME280;60130;52.250;5.048;2023-08-21T08:25:00;1024.3;;;23.6;66.9
72226;BME280;60130;52.250;5.048;2023-08-21T08:30:00;1024.3;;;23.9;64.7
72226;BME280;60130;52.250;5.048;2023-08-21T08:35:00;1024.3;;;24.1;65.5
72226;BME280;60130;52.250;5.048;2023-08-21T08:40:00;1024.3;;;24.1;64.2
72226;BME280;60130;52.250;5.048;2023-08-21T08:45:02;1024.3;;;24.2;64.0
72226;BME280;60130;52.250;5.048;2023-08-21T08:50:01;1024.3;;;24.4;64.7
72226;BME280;60130;52.250;5.048;2023-08-21T08:55:01;1024.3;;;24.5;63.7
72226;BME280;60130;52.250;5.048;2023-08-21T09:00:00;1024.2;;;24.7;63.7
72226;BME280;60130;52.250;5.048;2023-08-21T09:05:00;1024.2;;;25.0;62.4
72226;BME280;60130;52.250;5.048;2023-08-21T09:10:01;1024.3;;;25.0;60.9
72226;BME280;60130;52.250;5.048;2023-08-21T09:15:06;1024.2;;;25.1;61.9
72226;BME280;60130;52.250;5.048;2023-08-21T09:20:03;1024.3;;;25.3;61.1
72226;BME280;60130;52.250;5.048;2023-08-21T09:25:01;1024.3;;;25.5;58.8
72226;BME280;60130;52.250;5.048;2023-08-21T09:30:00;1024.3;;;25.4;61.2
72226;BME280;60130;52.250;5.048;2023-08-21T09:35:00;1024.2;;;25.5;61.2
72226;BME280;60130;52.250;5.048;2023-08-21T09:40:00;1024.2;;;25.4;60.4
72226;BME280;60130;52.250;5.048;2023-08-21T09:45:00;1024.1;;;25.4;60.7
72226;BME280;60130;52.250;5.048;2023-08-21T09:50:00;1024.1;;;25.6;61.6
72226;BME280;60130;52.250;5.048;2023-08-21T09:55:00;1024.0;;;25.9;59.7
72226;BME280;60130;52.250;5.048;2023-08-21T10:00:01;1024.1;;;25.8;58.0
72226;BME280;60130;52.250;5.048;2023-08-21T10:05:00;1024.0;;;26.2;58.2
72226;BME280;60130;52.250;5.048;2023-08-21T10:10:00;1024.0;;;26.1;58.1
72226;BME280;60130;52.250;5.048;2023-08-21T10:15:01;1024.0;;;26.2;58.3
72226;BME280;60130;52.250;5.048;2023-08-21T10:20:02;1024.0;;;26.0;56.7
72226;BME280;60130;52.250;5.048;2023-08-21T10:25:00;1024.0;;;26.5;57.0
72226;BME280;60130;52.250;5.048;2023-08-21T10:30:12;1024.1;;;26.8;55.4
72226;BME280;60130;52.250;5.048;2023-08-21T10:35:00;1024.0;;;26.6;55.9
72226;BME280;60130;52.250;5.048;2023-08-21T10:40:00;1024.0;;;26.6;56.4
72226;BME280;60130;52.250;5.048;2023-08-21T10:45:10;1024.0;;;27.1;55.4
72226;BME280;60130;52.250;5.048;2023-08-21T10:50:01;1024.0;;;27.7;54.9
72226;BME280;60130;52.250;5.048;2023-08-21T10:55:01;1023.9;;;27.8;53.0
72226;BME280;60130;52.250;5.048;2023-08-21T11:00:02;1024.0;;;28.0;50.8
72226;BME280;60130;52.250;5.048;2023-08-21T11:05:01;1023.9;;;28.2;50.9
72226;BME280;60130;52.250;5.048;2023-08-21T11:10:00;1023.9;;;27.5;53.3
72226;BME280;60130;52.250;5.048;2023-08-21T11:15:00;1023.9;;;27.6;52.8
72226;BME280;60130;52.250;5.048;2023-08-21T11:20:01;1023.9;;;27.5;53.3
72226;BME280;60130;52.250;5.048;2023-08-21T11:25:00;1023.9;;;27.5;53.4
72226;BME280;60130;52.250;5.048;2023-08-21T11:30:00;1023.9;;;27.4;51.6
72226;BME280;60130;52.250;5.048;2023-08-21T11:35:00;1023.8;;;27.5;50.8
72226;BME280;60130;52.250;5.048;2023-08-21T11:40:08;1023.8;;;27.7;50.2
72226;BME280;60130;52.250;5.048;2023-08-21T11:45:01;1023.8;;;27.5;50.5
72226;BME280;60130;52.250;5.048;2023-08-21T11:50:02;1023.8;;;27.9;50.5
72226;BME280;60130;52.250;5.048;2023-08-21T11:55:00;1023.8;;;27.9;49.3
72226;BME280;60130;52.250;5.048;2023-08-21T12:00:00;1023.8;;;27.4;51.4
72226;BME280;60130;52.250;5.048;2023-08-21T12:05:02;1023.9;;;27.7;50.6
72226;BME280;60130;52.250;5.048;2023-08-21T12:10:00;1023.8;;;27.8;52.0
72226;BME280;60130;52.250;5.048;2023-08-21T12:15:00;1023.7;;;27.7;49.1
72226;BME280;60130;52.250;5.048;2023-08-21T12:20:00;1023.7;;;28.1;48.6
72226;BME280;60130;52.250;5.048;2023-08-21T12:25:00;1023.6;;;28.2;47.2
72226;BME280;60130;52.250;5.048;2023-08-21T12:30:00;1023.6;;;28.0;46.3
72226;BME280;60130;52.250;5.048;2023-08-21T12:35:00;1023.7;;;28.2;48.7
72226;BME280;60130;52.250;5.048;2023-08-21T12:40:00;1023.7;;;27.7;48.4
72226;BME280;60130;52.250;5.048;2023-08-21T12:45:00;1023.7;;;28.0;49.5
72226;BME280;60130;52.250;5.048;2023-08-21T12:50:00;1023.7;;;28.0;47.6
72226;BME280;60130;52.250;5.048;2023-08-21T12:55:00;1023.7;;;28.0;46.6
72226;BME280;60130;52.250;5.048;2023-08-21T13:00:00;1023.7;;;28.2;47.2
72226;BME280;60130;52.250;5.048;2023-08-21T13:05:00;1023.6;;;28.5;47.1
72226;BME280;60130;52.250;5.048;2023-08-21T13:10:00;1023.5;;;28.5;47.1
72226;BME280;60130;52.250;5.048;2023-08-21T13:15:00;1023.5;;;28.0;45.6
72226;BME280;60130;52.250;5.048;2023-08-21T13:20:00;1023.5;;;28.2;45.6
72226;BME280;60130;52.250;5.048;2023-08-21T13:25:00;1023.4;;;28.2;43.1
72226;BME280;60130;52.250;5.048;2023-08-21T13:30:00;1023.4;;;28.5;45.4
72226;BME280;60130;52.250;5.048;2023-08-21T13:35:00;1023.5;;;28.4;44.3
72226;BME280;60130;52.250;5.048;2023-08-21T13:40:00;1023.4;;;28.2;45.0
72226;BME280;60130;52.250;5.048;2023-08-21T13:45:00;1023.5;;;28.4;44.9
72226;BME280;60130;52.250;5.048;2023-08-21T13:50:00;1023.4;;;27.9;45.5
72226;BME280;60130;52.250;5.048;2023-08-21T13:55:00;1023.4;;;27.7;47.6
72226;BME280;60130;52.250;5.048;2023-08-21T14:00:00;1023.3;;;27.9;46.9
72226;BME280;60130;52.250;5.048;2023-08-21T14:05:00;1023.3;;;28.0;47.3
72226;BME280;60130;52.250;5.048;2023-08-21T14:10:01;1023.3;;;27.7;47.4
72226;BME280;60130;52.250;5.048;2023-08-21T14:15:00;1023.3;;;27.7;46.7
72226;BME280;60130;52.250;5.048;2023-08-21T14:20:00;1023.3;;;27.4;48.4
72226;BME280;60130;52.250;5.048;2023-08-21T14:25:00;1023.2;;;27.4;49.7
72226;BME280;60130;52.250;5.048;2023-08-21T14:30:00;1023.1;;;27.7;48.5
72226;BME280;60130;52.250;5.048;2023-08-21T14:35:00;1023.0;;;27.7;48.3
72226;BME280;60130;52.250;5.048;2023-08-21T14:40:00;1023.0;;;28.1;47.7
72226;BME280;60130;52.250;5.048;2023-08-21T14:45:00;1023.0;;;27.5;48.8
72226;BME280;60130;52.250;5.048;2023-08-21T14:50:00;1023.0;;;27.6;48.6
72226;BME280;60130;52.250;5.048;2023-08-21T14:55:00;1022.9;;;28.0;47.8
72226;BME280;60130;52.250;5.048;2023-08-21T15:00:00;1022.9;;;27.7;48.3
72226;BME280;60130;52.250;5.048;2023-08-21T15:05:02;1022.9;;;27.6;49.0
72226;BME280;60130;52.250;5.048;2023-08-21T15:10:00;1022.9;;;27.4;49.3
72226;BME280;60130;52.250;5.048;2023-08-21T15:15:00;1022.7;;;27.6;49.2
72226;BME280;60130;52.250;5.048;2023-08-21T15:20:00;1022.7;;;27.5;50.7
72226;BME280;60130;52.250;5.048;2023-08-21T15:25:00;1022.7;;;27.6;50.1
72226;BME280;60130;52.250;5.048;2023-08-21T15:30:00;1022.7;;;27.3;50.3
72226;BME280;60130;52.250;5.048;2023-08-21T15:35:00;1022.7;;;27.2;49.9
72226;BME280;60130;52.250;5.048;2023-08-21T15:40:00;1022.7;;;27.1;50.9
72226;BME280;60130;52.250;5.048;2023-08-21T15:45:00;1022.5;;;27.5;51.8
72226;BME280;60130;52.250;5.048;2023-08-21T15:50:00;1022.6;;;27.1;50.5
72226;BME280;60130;52.250;5.048;2023-08-21T15:55:00;1022.6;;;26.9;50.4
72226;BME280;60130;52.250;5.048;2023-08-21T16:00:00;1022.6;;;26.7;50.9
72226;BME280;60130;52.250;5.048;2023-08-21T16:05:00;1022.6;;;26.4;51.7
72226;BME280;60130;52.250;5.048;2023-08-21T16:10:00;1022.6;;;26.5;52.1
72226;BME280;60130;52.250;5.048;2023-08-21T16:15:00;1022.5;;;26.5;51.4
72226;BME280;60130;52.250;5.048;2023-08-21T16:20:00;1022.5;;;26.6;51.9
72226;BME280;60130;52.250;5.048;2023-08-21T16:25:00;1022.5;;;26.5;52.6
72226;BME280;60130;52.250;5.048;2023-08-21T16:30:00;1022.4;;;26.3;51.2
72226;BME280;60130;52.250;5.048;2023-08-21T16:35:00;1022.4;;;26.5;51.6
72226;BME280;60130;52.250;5.048;2023-08-21T16:40:00;1022.3;;;26.1;51.0
72226;BME280;60130;52.250;5.048;2023-08-21T16:45:00;1022.3;;;26.0;51.0
72226;BME280;60130;52.250;5.048;2023-08-21T16:50:00;1022.3;;;26.1;50.5
72226;BME280;60130;52.250;5.048;2023-08-21T16:55:00;1022.3;;;25.9;51.7
72226;BME280;60130;52.250;5.048;2023-08-21T17:00:00;1022.3;;;26.1;51.1
72226;BME280;60130;52.250;5.048;2023-08-21T17:05:00;1022.3;;;26.1;49.6
72226;BME280;60130;52.250;5.048;2023-08-21T17:10:00;1022.3;;;26.2;50.1
72226;BME280;60130;52.250;5.048;2023-08-21T17:15:00;1022.2;;;26.4;49.3
72226;BME280;60130;52.250;5.048;2023-08-21T17:20:00;1022.3;;;26.2;50.7
72226;BME280;60130;52.250;5.048;2023-08-21T17:25:00;1022.2;;;26.1;51.4
72226;BME280;60130;52.250;5.048;2023-08-21T17:30:00;1022.3;;;26.2;50.9
72226;BME280;60130;52.250;5.048;2023-08-21T17:35:00;1022.2;;;25.7;51.9
72226;BME280;60130;52.250;5.048;2023-08-21T17:40:00;1022.2;;;25.5;53.1
72226;BME280;60130;52.250;5.048;2023-08-21T17:45:00;1022.2;;;25.3;53.0
72226;BME280;60130;52.250;5.048;2023-08-21T17:50:00;1022.0;;;25.4;52.8
72226;BME280;60130;52.250;5.048;2023-08-21T17:55:00;1022.0;;;25.2;53.9
72226;BME280;60130;52.250;5.048;2023-08-21T18:00:00;1022.1;;;24.7;55.4
72226;BME280;60130;52.250;5.048;2023-08-21T18:05:00;1022.0;;;24.1;57.2
72226;BME280;60130;52.250;5.048;2023-08-21T18:10:00;1022.1;;;24.1;56.8
72226;BME280;60130;52.250;5.048;2023-08-21T18:15:01;1022.1;;;23.8;58.4
72226;BME280;60130;52.250;5.048;2023-08-21T18:20:00;1022.1;;;23.3;60.1
72226;BME280;60130;52.250;5.048;2023-08-21T18:25:00;1022.1;;;23.1;61.1
72226;BME280;60130;52.250;5.048;2023-08-21T18:30:00;1022.2;;;23.0;61.3
72226;BME280;60130;52.250;5.048;2023-08-21T18:35:00;1022.2;;;22.8;61.4
72226;BME280;60130;52.250;5.048;2023-08-21T18:40:00;1022.2;;;22.9;61.2
72226;BME280;60130;52.250;5.048;2023-08-21T18:45:00;1022.1;;;22.6;62.1
72226;BME280;60130;52.250;5.048;2023-08-21T18:50:00;1022.2;;;22.4;63.3
72226;BME280;60130;52.250;5.048;2023-08-21T18:55:00;1022.3;;;22.2;64.2
72226;BME280;60130;52.250;5.048;2023-08-21T19:00:00;1022.2;;;22.1;64.4
72226;BME280;60130;52.250;5.048;2023-08-21T19:05:00;1022.3;;;21.9;65.1
72226;BME280;60130;52.250;5.048;2023-08-21T19:10:00;1022.3;;;21.7;65.8
72226;BME280;60130;52.250;5.048;2023-08-21T19:15:00;1022.3;;;21.6;66.7
72226;BME280;60130;52.250;5.048;2023-08-21T19:20:00;1022.3;;;21.4;67.6
72226;BME280;60130;52.250;5.048;2023-08-21T19:25:00;1022.4;;;21.1;68.8
72226;BME280;60130;52.250;5.048;2023-08-21T19:30:00;1022.4;;;21.0;68.7
72226;BME280;60130;52.250;5.048;2023-08-21T19:35:00;1022.5;;;21.0;68.9
72226;BME280;60130;52.250;5.048;2023-08-21T19:40:00;1022.5;;;20.9;69.2
72226;BME280;60130;52.250;5.048;2023-08-21T19:45:00;1022.5;;;20.7;69.8
72226;BME280;60130;52.250;5.048;2023-08-21T19:50:02;1022.5;;;20.4;71.7
72226;BME280;60130;52.250;5.048;2023-08-21T19:55:00;1022.5;;;20.0;74.0
72226;BME280;60130;52.250;5.048;2023-08-21T20:00:00;1022.4;;;19.9;74.1
72226;BME280;60130;52.250;5.048;2023-08-21T20:05:00;1022.4;;;19.9;74.2
72226;BME280;60130;52.250;5.048;2023-08-21T20:10:00;1022.5;;;19.8;74.9
72226;BME280;60130;52.250;5.048;2023-08-21T20:15:02;1022.3;;;19.6;76.2
72226;BME280;60130;52.250;5.048;2023-08-21T20:20:00;1022.4;;;19.6;76.3
72226;BME280;60130;52.250;5.048;2023-08-21T20:25:00;1022.5;;;19.7;75.4
72226;BME280;60130;52.250;5.048;2023-08-21T20:30:00;1022.4;;;19.8;74.4
72226;BME280;60130;52.250;5.048;2023-08-21T20:35:00;1022.4;;;19.8;74.4
72226;BME280;60130;52.250;5.048;2023-08-21T20:40:00;1022.5;;;19.7;74.5
72226;BME280;60130;52.250;5.048;2023-08-21T20:45:00;1022.5;;;19.6;74.6
72226;BME280;60130;52.250;5.048;2023-08-21T20:50:00;1022.5;;;19.5;74.7
72226;BME280;60130;52.250;5.048;2023-08-21T20:55:00;1022.5;;;19.4;75.2
72226;BME280;60130;52.250;5.048;2023-08-21T21:00:00;1022.3;;;19.3;76.5
72226;BME280;60130;52.250;5.048;2023-08-21T21:05:00;1022.4;;;19.3;77.4
72226;BME280;60130;52.250;5.048;2023-08-21T21:10:00;1022.3;;;19.2;77.9
72226;BME280;60130;52.250;5.048;2023-08-21T21:15:00;1022.3;;;19.1;78.5
72226;BME280;60130;52.250;5.048;2023-08-21T21:20:00;1022.2;;;18.9;78.9
72226;BME280;60130;52.250;5.048;2023-08-21T21:25:00;1022.1;;;18.7;79.3
72226;BME280;60130;52.250;5.048;2023-08-21T21:30:00;1022.2;;;18.6;79.4
72226;BME280;60130;52.250;5.048;2023-08-21T21:35:00;1022.2;;;18.3;80.1
72226;BME280;60130;52.250;5.048;2023-08-21T21:40:00;1022.3;;;18.1;81.2
72226;BME280;60130;52.250;5.048;2023-08-21T21:45:00;1022.3;;;18.1;81.2
72226;BME280;60130;52.250;5.048;2023-08-21T21:50:00;1022.1;;;18.1;81.1
72226;BME280;60130;52.250;5.048;2023-08-21T21:55:00;1022.2;;;18.1;81.6
72226;BME280;60130;52.250;5.048;2023-08-21T22:00:00;1022.1;;;18.1;81.7
72226;BME280;60130;52.250;5.048;2023-08-21T22:05:00;1022.3;;;18.3;81.6
72226;BME280;60130;52.250;5.048;2023-08-21T22:10:00;1022.3;;;18.6;82.0
72226;BME280;60130;52.250;5.048;2023-08-21T22:15:00;1022.3;;;18.7;81.3
72226;BME280;60130;52.250;5.048;2023-08-21T22:20:00;1022.1;;;18.7;80.7
72226;BME280;60130;52.250;5.048;2023-08-21T22:25:00;1022.0;;;18.6;80.9
72226;BME280;60130;52.250;5.048;2023-08-21T22:30:00;1022.3;;;18.6;80.7
72226;BME280;60130;52.250;5.048;2023-08-21T22:35:00;1022.3;;;18.6;80.5
72226;BME280;60130;52.250;5.048;2023-08-21T22:40:00;1022.2;;;18.4;80.7
72226;BME280;60130;52.250;5.048;2023-08-21T22:45:00;1022.1;;;18.4;80.6
72226;BME280;60130;52.250;5.048;2023-08-21T22:50:00;1022.2;;;18.4;80.7
72226;BME280;60130;52.250;5.048;2023-08-21T22:55:00;1022.0;;;18.5;80.9
72226;BME280;60130;52.250;5.048;2023-08-21T23:00:00;1021.9;;;18.4;81.7
72226;BME280;60130;52.250;5.048;2023-08-21T23:05:00;1021.7;;;18.3;81.6
72226;BME280;60130;52.250;5.048;2023-08-21T23:10:00;1021.6;;;18.3;81.7
72226;BME280;60130;52.250;5.048;2023-08-21T23:15:00;1021.7;;;18.3;82.0
72226;BME280;60130;52.250;5.048;2023-08-21T23:20:00;1021.6;;;18.2;82.2
72226;BME280;60130;52.250;5.048;2023-08-21T23:25:00;1021.5;;;18.1;82.9
72226;BME280;60130;52.250;5.048;2023-08-21T23:30:00;1021.3;;;17.8;84.6
72226;BME280;60130;52.250;5.048;2023-08-21T23:35:00;1021.3;;;17.8;84.8
72226;BME280;60130;52.250;5.048;2023-08-21T23:40:00;1021.4;;;17.8;84.5
72226;BME280;60130;52.250;5.048;2023-08-21T23:45:00;1021.4;;;17.9;84.5
72226;BME280;60130;52.250;5.048;2023-08-21T23:50:00;1021.4;;;18.0;84.4
72226;BME280;60130;52.250;5.048;2023-08-21T23:55:00;1021.4;;;18.1;83.5
